Time;durP1;ratioP1;P1;durP2;ratioP2;P2;SDS_P1;SDS_P2;PMS_P1;PMS_P2;Temp;Humidity;BMP_temperature;BMP_pressure;BME280_temperature;BME280_humidity;BME280_pressure;Samples;Min_cycle;Max_cycle;Signal;HPM_P1;HPM_P2
2021/08/26 00:00:28;;;;;;;14.38;8.50;;;;;;;26.72;42.19;101543.16;4445143;32;20145;-68
2021/08/26 00:05:50;;;;;;;11.77;8.13;;;;;;;26.30;42.93;101543.53;4443413;32;20071;-67
2021/08/26 00:08:17;;;;;;;14.82;7.53;;;;;;;26.67;41.96;101544.75;4444881;32;20047;-68
2021/08/26 00:10:44;;;;;;;13.10;7.95;;;;;;;26.93;41.79;101542.22;4444134;32;20073;-68
2021/08/26 00:13:11;;;;;;;12.45;7.68;;;;;;;26.84;41.78;101538.84;4443016;32;20021;-68
2021/08/26 00:15:41;;;;;;;16.67;7.95;;;;;;;26.91;41.55;101539.09;4444614;32;20468;-67
2021/08/26 00:18:08;;;;;;;11.30;6.60;;;;;;;27.13;nan;101535.28;4443803;32;20138;-68
2021/08/26 00:20:33;;;;;;;11.90;7.87;;;;;;;27.13;41.05;101546.84;4442836;32;20054;-68
2021/08/26 00:22:59;;;;;;;14.48;8.60;;;;;;;26.82;41.43;101541.50;4443405;32;20060;-68
2021/08/26 00:25:25;;;;;;;12.25;7.90;;;;;;;26.91;41.38;101533.31;4444753;32;20418;-67
2021/08/26 00:27:51;;;;;;;31.20;9.55;;;;;;;26.57;42.15;101534.00;4442677;32;20370;-67
2021/08/26 00:30:17;;;;;;;14.48;7.93;;;;;;;26.65;41.90;101535.81;4444196;32;20077;-67
2021/08/26 00:32:43;;;;;;;11.45;7.05;;;;;;;26.50;42.18;101531.63;4441942;32;20038;-67
2021/08/26 00:35:10;;;;;;;15.73;6.50;;;;;;;26.55;42.18;101531.63;4444566;32;20074;-68
2021/08/26 00:37:36;;;;;;;11.98;6.47;;;;;;;26.29;42.57;101534.06;4444752;32;20080;-68
2021/08/26 00:40:02;;;;;;;9.13;5.87;;;;;;;26.33;42.42;101525.16;4444492;32;20073;-67
2021/08/26 00:42:28;;;;;;;11.30;6.25;;;;;;;26.37;42.36;101535.13;4443361;32;20065;-67
2021/08/26 00:44:53;;;;;;;48.08;10.95;;;;;;;26.36;42.41;101532.75;4444529;32;20046;-67
2021/08/26 00:47:24;;;;;;;12.43;6.47;;;;;;;26.42;42.31;101533.53;4444086;32;20069;-67
2021/08/26 00:49:51;;;;;;;11.05;5.97;;;;;;;26.74;41.81;101523.97;4444646;32;20370;-67
2021/08/26 00:52:18;;;;;;;10.27;5.60;;;;;;;26.45;42.29;101527.44;4442630;32;20747;-68
2021/08/26 00:54:43;;;;;;;9.52;6.12;;;;;;;26.44;42.20;101523.00;4445481;32;20078;-67
2021/08/26 00:57:09;;;;;;;11.50;5.90;;;;;;;26.25;42.72;101530.69;4444804;32;20071;-68
2021/08/26 00:59:35;;;;;;;9.73;6.22;;;;;;;26.17;42.82;101523.09;4444232;32;20057;-67
2021/08/26 01:02:25;;;;;;;10.73;6.18;;;;;;;26.16;43.00;101522.31;4442599;32;20059;-68
2021/08/26 01:04:58;;;;;;;9.40;6.15;;;;;;;26.54;42.30;101523.50;4444532;32;20057;-68
2021/08/26 01:10:07;;;;;;;9.85;5.95;;;;;;;27.05;41.61;101523.50;3980197;32;15151707;-69
2021/08/26 01:12:34;;;;;;;9.35;5.75;;;;;;;27.05;41.61;101523.50;4437768;32;20044;-69
2021/08/26 01:15:00;;;;;;;9.18;5.85;;;;;;;26.76;41.92;101515.56;4436583;32;20037;-68
2021/08/26 01:17:28;;;;;;;10.07;5.55;;;;;;;26.63;42.16;101515.34;4437588;32;20049;-68
2021/08/26 01:19:59;;;;;;;11.63;6.10;;;;;;;26.58;42.21;101526.88;4437415;32;20156;-68
2021/08/26 01:22:27;;;;;;;10.18;6.25;;;;;;;26.59;42.50;101517.69;4433587;32;20119;-68
2021/08/26 01:24:58;;;;;;;9.73;5.55;;;;;;;26.67;42.26;101512.97;4438938;32;20041;-68
2021/08/26 01:27:35;;;;;;;9.18;5.80;;;;;;;26.69;42.02;101512.44;4437415;32;20126;-68
2021/08/26 01:30:03;;;;;;;12.82;5.40;;;;;;;26.56;42.40;101509.31;4434568;32;20025;-68
2021/08/26 01:32:29;;;;;;;10.20;5.65;;;;;;;26.66;42.30;101507.72;4435865;32;20056;-68
2021/08/26 01:34:56;;;;;;;9.73;5.20;;;;;;;26.50;42.42;101491.22;4438797;32;20386;-68
2021/08/26 01:37:23;;;;;;;9.82;5.55;;;;;;;26.70;42.08;101497.47;4439861;32;20460;-68
2021/08/26 01:39:49;;;;;;;9.32;5.05;;;;;;;26.81;42.06;101496.59;4437755;32;20056;-68
2021/08/26 01:42:15;;;;;;;9.45;5.07;;;;;;;26.75;42.09;101493.75;4436770;32;20104;-68
2021/08/26 01:44:42;;;;;;;8.20;5.10;;;;;;;26.62;42.23;101496.44;4439634;32;20165;-68
2021/08/26 01:47:09;;;;;;;8.02;4.28;;;;;;;26.40;42.75;101496.53;4440094;32;20048;-68
2021/08/26 01:49:35;;;;;;;10.57;4.57;;;;;;;26.81;42.03;101496.59;4435285;32;20683;-68
2021/08/26 01:52:01;;;;;;;7.05;4.18;;;;;;;26.56;42.40;101489.09;4439119;32;20025;-68
2021/08/26 01:54:27;;;;;;;6.35;3.72;;;;;;;26.64;42.18;101488.06;4438585;32;20461;-68
2021/08/26 01:56:54;;;;;;;5.60;3.53;;;;;;;26.03;43.66;101486.69;4437607;32;20370;-68
2021/08/26 01:59:19;;;;;;;8.50;3.62;;;;;;;26.15;43.20;101485.34;4439308;32;20526;-68
2021/08/26 02:01:45;;;;;;;9.32;4.05;;;;;;;26.53;42.61;101488.06;4436737;32;20532;-70
2021/08/26 02:04:11;;;;;;;6.78;4.30;;;;;;;25.95;43.66;101474.88;4438812;32;20100;-70
2021/08/26 02:06:36;;;;;;;5.93;4.05;;;;;;;26.57;42.58;101485.69;4440364;32;20037;-70
2021/08/26 02:09:02;;;;;;;8.32;4.70;;;;;;;26.55;42.65;101481.75;4439755;32;20072;-70
2021/08/26 02:11:28;;;;;;;8.40;5.12;;;;;;;26.34;42.96;101480.53;4435906;32;20283;-70
2021/08/26 02:13:53;;;;;;;6.90;5.05;;;;;;;25.55;44.81;101471.81;4435519;32;20030;-70
2021/08/26 02:16:19;;;;;;;11.07;4.60;;;;;;;25.99;43.79;101469.66;4432938;32;20486;-70
2021/08/26 02:18:45;;;;;;;8.23;3.90;;;;;;;26.02;43.56;101474.37;4439046;32;20124;-70
2021/08/26 02:21:11;;;;;;;6.22;4.00;;;;;;;26.30;43.24;101469.28;4427873;32;20095;-70
2021/08/26 02:23:37;;;;;;;8.00;3.37;;;;;;;25.69;44.63;101470.72;4428663;32;20065;-71
2021/08/26 02:26:03;;;;;;;6.85;3.67;;;;;;;26.27;43.16;101469.56;4426487;32;20048;-71
2021/08/26 02:28:28;;;;;;;6.62;3.92;;;;;;;26.11;43.67;101461.75;4425715;32;20101;-70
2021/08/26 02:30:54;;;;;;;7.32;4.00;;;;;;;26.23;43.34;101469.06;4427631;32;20413;-70
2021/08/26 02:33:20;;;;;;;7.18;3.87;;;;;;;26.18;43.43;101475.62;4427077;32;20042;-70
2021/08/26 02:35:45;;;;;;;5.65;3.25;;;;;;;25.97;43.90;101465.69;4425396;32;20025;-70
2021/08/26 02:38:11;;;;;;;4.72;3.45;;;;;;;26.34;43.22;101471.88;4423062;32;20073;-70
2021/08/26 02:40:37;;;;;;;4.50;2.80;;;;;;;26.23;43.35;101478.47;4427149;32;20343;-70
2021/08/26 02:43:02;;;;;;;3.40;2.30;;;;;;;25.60;44.62;101482.53;4424967;32;20021;-70
2021/08/26 02:45:28;;;;;;;5.10;2.42;;;;;;;25.52;44.90;101467.84;4427114;32;20108;-70
2021/08/26 02:47:53;;;;;;;4.40;2.15;;;;;;;25.77;44.15;101471.78;4428399;32;20381;-70
2021/08/26 02:50:19;;;;;;;4.32;1.90;;;;;;;26.02;43.56;101482.22;4426209;32;20022;-70
2021/08/26 02:52:45;;;;;;;2.12;1.50;;;;;;;25.64;44.51;101475.19;4426594;32;20053;-70
2021/08/26 02:55:11;;;;;;;9.07;1.60;;;;;;;25.97;43.72;101477.22;4428240;32;20105;-70
2021/08/26 02:57:38;;;;;;;2.53;1.60;;;;;;;25.93;43.78;101476.72;4427448;32;20037;-70
2021/08/26 03:00:06;;;;;;;3.83;1.77;;;;;;;25.98;43.42;101478.84;4422810;32;20191;-70
2021/08/26 03:02:31;;;;;;;8.70;2.30;;;;;;;26.02;43.80;101473.56;4425001;32;20117;-71
2021/08/26 03:04:58;;;;;;;1.42;1.15;;;;;;;25.96;43.83;101472.78;4429356;32;20022;-70
2021/08/26 03:07:24;;;;;;;3.50;2.10;;;;;;;26.12;43.29;101475.66;4424458;32;20456;-71
2021/08/26 03:09:50;;;;;;;2.35;1.60;;;;;;;26.18;43.27;101469.84;4425617;32;20038;-70
2021/08/26 03:12:16;;;;;;;5.62;1.77;;;;;;;26.18;43.53;101470.63;4424891;32;20092;-71
2021/08/26 03:14:42;;;;;;;2.67;1.50;;;;;;;26.33;43.13;101471.13;4426108;32;20132;-71
2021/08/26 03:17:07;;;;;;;4.10;1.77;;;;;;;26.40;42.97;101466.88;4427015;32;20033;-71
2021/08/26 03:19:33;;;;;;;2.58;1.50;;;;;;;26.22;43.42;101464.56;4428152;32;20076;-71
2021/08/26 03:21:59;;;;;;;2.80;1.40;;;;;;;25.97;43.84;101465.69;4425338;32;20431;-71
2021/08/26 03:24:25;;;;;;;4.32;1.30;;;;;;;26.17;43.38;101466.16;4427628;32;20406;-70
2021/08/26 03:26:50;;;;;;;2.42;1.20;;;;;;;25.80;44.34;101471.47;4423806;32;20069;-70
2021/08/26 03:29:16;;;;;;;2.15;1.30;;;;;;;26.06;43.38;101474.09;4430366;32;20029;-70
2021/08/26 03:31:42;;;;;;;1.75;1.12;;;;;;;26.05;43.33;101466.75;4422340;32;20030;-70
2021/08/26 03:34:07;;;;;;;1.80;0.80;;;;;;;26.14;43.18;101472.22;4429273;32;20414;-70
2021/08/26 03:36:33;;;;;;;1.10;0.80;;;;;;;26.26;42.79;101462.22;4424912;32;20025;-70
2021/08/26 03:39:01;;;;;;;2.90;1.10;;;;;;;26.23;42.61;101464.03;4426636;32;20034;-70
2021/08/26 03:41:26;;;;;;;1.98;0.98;;;;;;;26.41;42.39;101468.44;4427810;32;20097;-70
2021/08/26 03:43:52;;;;;;;2.37;1.00;;;;;;;26.55;42.19;101470.22;4426737;32;20068;-70
2021/08/26 03:46:18;;;;;;;3.53;1.00;;;;;;;26.62;41.97;101476.25;4425691;32;20485;-70
2021/08/26 03:48:44;;;;;;;1.98;0.90;;;;;;;26.50;42.18;101479.66;4422805;32;20533;-71
2021/08/26 03:51:10;;;;;;;2.83;1.17;;;;;;;26.40;42.02;101470.53;4427421;32;20042;-70
2021/08/26 03:53:36;;;;;;;2.15;0.70;;;;;;;26.33;42.27;101473.19;4423845;32;20449;-71
2021/08/26 03:56:06;;;;;;;0.90;0.70;;;;;;;26.31;42.16;101464.28;4424730;32;20030;-71
2021/08/26 03:58:32;;;;;;;2.08;0.98;;;;;;;26.00;42.46;101467.53;4424111;32;20558;-70
2021/08/26 04:01:02;;;;;;;1.92;0.95;;;;;;;26.16;42.21;101461.72;4424050;32;20394;-71
2021/08/26 04:03:27;;;;;;;3.33;0.60;;;;;;;26.17;42.27;101465.41;4427657;32;20061;-70
2021/08/26 04:05:53;;;;;;;3.62;1.00;;;;;;;25.99;42.23;101463.87;4423583;32;20069;-70
2021/08/26 04:08:18;;;;;;;1.75;0.90;;;;;;;25.91;42.52;101459.12;4427799;32;20034;-70
2021/08/26 04:10:45;;;;;;;2.05;0.73;;;;;;;26.03;42.39;101460.72;4421974;32;20117;-70
2021/08/26 04:13:11;;;;;;;2.22;0.95;;;;;;;26.13;42.18;101464.88;4428195;32;20485;-70
2021/08/26 04:15:37;;;;;;;1.77;0.98;;;;;;;26.11;41.90;101468.28;4426047;32;20033;-70
2021/08/26 04:18:03;;;;;;;2.97;0.90;;;;;;;26.17;42.11;101466.16;4428609;32;20086;-70
2021/08/26 04:20:29;;;;;;;2.35;0.90;;;;;;;26.10;42.29;101463.03;4422200;32;20130;-71
2021/08/26 04:22:54;;;;;;;2.62;1.08;;;;;;;26.31;41.88;101455.62;4424482;32;20073;-70
2021/08/26 04:25:20;;;;;;;3.42;1.33;;;;;;;26.15;41.83;101456.47;4428458;32;20041;-70
2021/08/26 04:27:46;;;;;;;2.15;1.05;;;;;;;26.24;41.68;101461.97;4427896;32;20072;-71
2021/08/26 04:30:12;;;;;;;4.93;1.40;;;;;;;26.17;41.88;101457.50;4423541;32;20049;-70
2021/08/26 04:32:39;;;;;;;2.05;1.23;;;;;;;26.22;41.69;101458.81;4423172;32;20100;-70
2021/08/26 04:35:04;;;;;;;4.45;1.27;;;;;;;26.19;41.78;101459.88;4424116;32;20117;-70
2021/08/26 04:37:30;;;;;;;4.85;1.40;;;;;;;25.93;42.30;101447.88;4425346;32;20025;-70
2021/08/26 04:39:57;;;;;;;2.25;1.70;;;;;;;26.15;41.76;101457.28;4426104;32;20556;-71
2021/08/26 04:42:23;;;;;;;2.22;1.40;;;;;;;25.81;42.63;101452.88;4425178;32;20037;-71
2021/08/26 04:44:48;;;;;;;5.82;1.73;;;;;;;25.61;42.89;101453.16;4427112;32;20042;-71
2021/08/26 04:47:14;;;;;;;6.05;1.60;;;;;;;25.43;43.20;101445.06;4426642;32;20115;-71
2021/08/26 04:49:41;;;;;;;4.45;1.33;;;;;;;25.70;42.79;101460.75;4423427;32;20096;-70
2021/08/26 04:52:06;;;;;;;5.40;1.67;;;;;;;25.73;42.46;101459.69;4425447;32;20105;-70
2021/08/26 04:54:32;;;;;;;5.85;1.67;;;;;;;25.44;42.12;101463.16;4424586;32;20038;-70
2021/08/26 04:56:58;;;;;;;4.53;1.80;;;;;;;25.47;41.66;101457.13;4425667;32;20146;-70
2021/08/26 04:59:24;;;;;;;5.87;2.03;;;;;;;25.32;41.93;101462.38;4426531;32;20073;-70
2021/08/26 05:01:50;;;;;;;3.58;2.00;;;;;;;25.07;42.43;101467.03;4421792;32;20135;-70
2021/08/26 05:04:22;;;;;;;8.25;2.17;;;;;;;25.30;41.53;101467.84;4424228;32;20072;-70
2021/08/26 05:06:48;;;;;;;6.72;2.10;;;;;;;25.15;42.08;101464.44;4426865;32;20140;-70
2021/08/26 05:09:14;;;;;;;4.43;2.10;;;;;;;25.38;41.38;101468.94;4427046;32;20086;-70
2021/08/26 05:11:39;;;;;;;8.68;2.15;;;;;;;25.19;41.50;101468.63;4424880;32;20037;-70
2021/08/26 05:14:06;;;;;;;6.95;2.55;;;;;;;24.85;41.87;101469.12;4425996;32;20177;-70
2021/08/26 05:16:31;;;;;;;7.00;1.73;;;;;;;24.78;41.76;101469.59;4424801;32;20048;-70
2021/08/26 05:18:57;;;;;;;5.80;2.00;;;;;;;24.43;41.64;101472.91;4425088;32;20172;-70
2021/08/26 05:21:23;;;;;;;7.25;2.40;;;;;;;24.53;41.28;101479.19;4423865;32;20108;-70
2021/08/26 05:23:48;;;;;;;5.78;1.95;;;;;;;24.62;41.03;101482.62;4421385;32;20474;-70
2021/08/26 05:26:15;;;;;;;11.55;2.40;;;;;;;24.56;41.10;101484.72;4428097;32;20060;-70
2021/08/26 05:28:42;;;;;;;8.88;2.45;;;;;;;24.60;40.59;101472.94;4424915;32;20198;-70
2021/08/26 05:31:08;;;;;;;10.10;2.67;;;;;;;24.90;40.27;101485.59;4424035;32;20485;-70
2021/08/26 05:33:34;;;;;;;10.25;2.60;;;;;;;24.35;41.00;101480.44;4424390;32;20027;-70
2021/08/26 05:36:00;;;;;;;7.65;2.75;;;;;;;24.43;40.69;101478.66;4425136;32;20147;-70
2021/08/26 05:38:25;;;;;;;11.27;3.00;;;;;;;24.63;40.35;101480.53;4426710;32;20053;-70
2021/08/26 05:40:51;;;;;;;8.63;2.80;;;;;;;24.63;40.08;101478.44;4426277;32;20053;-70
2021/08/26 05:43:16;;;;;;;10.00;2.62;;;;;;;24.53;40.26;101484.94;4426385;32;20370;-70
2021/08/26 05:45:42;;;;;;;6.32;2.70;;;;;;;24.40;40.42;101485.44;4426503;32;20130;-70
2021/08/26 05:48:09;;;;;;;9.57;2.55;;;;;;;24.70;39.54;101485.84;4426860;32;20026;-71
2021/08/26 05:50:34;;;;;;;10.23;3.17;;;;;;;24.44;40.16;101470.78;4427757;32;20104;-70
2021/08/26 05:53:00;;;;;;;15.15;3.37;;;;;;;24.58;39.67;101470.56;4423858;32;20062;-70
2021/08/26 05:55:26;;;;;;;8.80;3.12;;;;;;;24.70;39.27;101477.97;4428108;32;20041;-70
2021/08/26 05:57:51;;;;;;;11.60;3.33;;;;;;;24.88;38.84;101480.38;4427132;32;20566;-70
2021/08/26 06:00:17;;;;;;;10.77;3.60;;;;;;;24.74;39.02;101481.41;4427118;32;20419;-70
2021/08/26 06:02:43;;;;;;;13.73;3.28;;;;;;;24.52;39.25;101477.63;4424392;32;20160;-70
2021/08/26 06:05:10;;;;;;;12.48;3.75;;;;;;;24.32;39.63;101481.47;4427095;32;20403;-70
2021/08/26 06:07:38;;;;;;;13.75;4.22;;;;;;;24.21;39.91;101478.53;4427781;32;20500;-70
2021/08/26 06:10:06;;;;;;;13.18;4.15;;;;;;;24.46;39.38;101489.12;4426645;32;20038;-70
2021/08/26 06:12:31;;;;;;;12.15;3.70;;;;;;;24.58;39.30;101479.19;4426409;32;20030;-70
2021/08/26 06:14:58;;;;;;;10.00;3.60;;;;;;;24.22;39.67;101488.75;4427606;32;20029;-70
2021/08/26 06:17:23;;;;;;;14.43;3.55;;;;;;;24.37;39.63;101494.31;4425851;32;20072;-70
2021/08/26 06:19:50;;;;;;;12.70;3.62;;;;;;;24.29;39.76;101505.50;4426394;32;20483;-70
2021/08/26 06:22:16;;;;;;;12.15;3.67;;;;;;;24.42;39.26;101502.97;4423471;32;20112;-70
2021/08/26 06:24:43;;;;;;;13.25;3.67;;;;;;;24.46;39.71;101500.63;4427383;32;20059;-70
2021/08/26 06:27:09;;;;;;;13.68;3.58;;;;;;;24.24;39.97;101500.50;4426497;32;20069;-70
2021/08/26 06:29:34;;;;;;;13.15;3.95;;;;;;;23.97;40.37;101501.16;4425459;32;20112;-70
2021/08/26 06:32:00;;;;;;;11.02;3.92;;;;;;;24.70;39.07;101505.97;4423739;32;20046;-70
2021/08/26 06:34:26;;;;;;;13.82;3.65;;;;;;;24.63;39.10;101509.31;4428066;32;20106;-70
2021/08/26 06:36:51;;;;;;;8.95;3.65;;;;;;;24.67;38.77;101496.28;4428743;32;20029;-70
2021/08/26 06:39:17;;;;;;;8.32;3.42;;;;;;;24.82;38.51;101496.84;4429845;32;20059;-70
2021/08/26 06:41:43;;;;;;;14.52;4.22;;;;;;;24.75;38.59;101497.34;4426839;32;20386;-70
2021/08/26 06:44:09;;;;;;;15.02;4.37;;;;;;;25.03;38.23;101503.97;4427921;32;20033;-70
2021/08/26 06:46:35;;;;;;;11.27;3.80;;;;;;;24.87;38.46;101504.72;4429931;32;20095;-70
2021/08/26 06:49:02;;;;;;;13.75;3.97;;;;;;;25.25;37.57;101512.63;4427365;32;20077;-70
2021/08/26 06:51:27;;;;;;;17.67;4.43;;;;;;;24.87;38.29;101506.81;4429226;32;20417;-70
2021/08/26 06:53:53;;;;;;;11.35;3.87;;;;;;;25.31;37.26;101509.75;4426033;32;20076;-70
2021/08/26 06:56:18;;;;;;;10.70;3.75;;;;;;;25.43;36.98;101508.47;4427798;32;20026;-70
2021/08/26 06:58:44;;;;;;;18.52;4.37;;;;;;;25.53;36.74;101509.00;4425762;32;20167;-70
2021/08/26 07:01:10;;;;;;;12.15;4.43;;;;;;;25.27;36.74;101498.50;4425716;32;20052;-70
2021/08/26 07:03:36;;;;;;;14.68;3.92;;;;;;;25.13;37.39;101513.16;4425047;32;20093;-70
2021/08/26 07:06:01;;;;;;;14.35;3.92;;;;;;;25.53;36.42;101514.78;4425601;32;20063;-70
2021/08/26 07:08:27;;;;;;;10.82;3.60;;;;;;;25.37;37.03;101518.44;4429383;32;20097;-70
2021/08/26 07:10:53;;;;;;;16.83;4.22;;;;;;;25.29;37.11;101512.38;4426053;32;20030;-70
2021/08/26 07:13:19;;;;;;;17.62;4.18;;;;;;;25.49;36.14;101520.03;4423130;32;20400;-70
2021/08/26 07:15:45;;;;;;;14.40;4.30;;;;;;;25.33;35.53;101525.25;4425466;32;20111;-69
2021/08/26 07:18:11;;;;;;;16.35;4.53;;;;;;;24.73;36.62;101511.47;4429539;32;20113;-70
2021/08/26 07:20:37;;;;;;;15.60;5.32;;;;;;;25.14;36.05;101515.50;4428629;32;20074;-69
2021/08/26 07:23:03;;;;;;;12.70;4.10;;;;;;;24.52;37.07;101494.91;4428699;32;20105;-69
2021/08/26 07:25:29;;;;;;;20.40;4.60;;;;;;;25.12;36.12;101502.91;4427953;32;20018;-69
2021/08/26 07:27:55;;;;;;;10.23;4.00;;;;;;;25.07;36.10;101512.34;4425202;32;20036;-69
2021/08/26 07:30:20;;;;;;;13.10;4.53;;;;;;;25.38;35.72;101524.44;4427631;32;20038;-69
2021/08/26 07:32:47;;;;;;;13.18;3.83;;;;;;;25.48;35.47;101518.44;4424891;32;20454;-70
2021/08/26 07:35:13;;;;;;;13.65;3.78;;;;;;;25.85;34.93;101524.69;4426707;32;20030;-70
2021/08/26 07:37:38;;;;;;;18.48;4.40;;;;;;;25.38;35.71;101526.56;4426291;32;20104;-70
2021/08/26 07:40:05;;;;;;;15.27;4.35;;;;;;;25.60;35.37;101526.56;4429600;32;20470;-70
2021/08/26 07:42:30;;;;;;;13.18;4.05;;;;;;;24.91;36.89;101530.41;4422785;32;20053;-70
2021/08/26 07:45:02;;;;;;;15.57;4.28;;;;;;;25.66;35.48;101515.81;4423960;32;20060;-70
2021/08/26 07:47:30;;;;;;;16.95;4.12;;;;;;;25.90;35.46;101532.56;4425381;32;20073;-70
2021/08/26 07:49:56;;;;;;;14.07;3.87;;;;;;;25.68;35.84;101530.47;4424094;32;20108;-70
2021/08/26 07:52:22;;;;;;;14.98;3.75;;;;;;;25.28;36.21;101534.63;4426408;32;20422;-70
2021/08/26 07:54:48;;;;;;;11.48;3.60;;;;;;;25.48;35.09;101533.62;4422724;32;21178;-69
2021/08/26 07:57:14;;;;;;;11.80;3.95;;;;;;;26.01;34.22;101538.37;4425113;32;20145;-69
2021/08/26 07:59:39;;;;;;;11.98;3.87;;;;;;;25.98;33.99;101540.19;4428022;32;20025;-69
2021/08/26 08:02:07;;;;;;;14.93;4.07;;;;;;;26.10;33.57;101529.41;4425530;32;20134;-69
2021/08/26 08:04:32;;;;;;;12.95;4.07;;;;;;;26.52;32.99;101543.44;4425824;32;20061;-70
2021/08/26 08:06:59;;;;;;;12.37;4.05;;;;;;;26.39;33.31;101544.03;4426601;32;20099;-70
2021/08/26 08:09:24;;;;;;;14.77;4.07;;;;;;;26.18;33.77;101547.75;4427351;32;20039;-70
2021/08/26 08:11:50;;;;;;;12.05;4.10;;;;;;;25.85;34.65;101551.44;4424063;32;20145;-69
2021/08/26 08:14:16;;;;;;;15.27;4.00;;;;;;;26.16;34.07;101547.47;4426464;32;20069;-69
2021/08/26 08:16:42;;;;;;;11.65;4.10;;;;;;;25.98;34.62;101548.84;4428059;32;20038;-70
2021/08/26 08:19:08;;;;;;;14.75;3.75;;;;;;;26.37;34.07;101560.28;4421268;32;20453;-70
2021/08/26 08:21:35;;;;;;;13.40;4.32;;;;;;;26.61;33.32;101548.94;4423888;32;20042;-70
2021/08/26 08:24:01;;;;;;;15.00;4.00;;;;;;;26.08;34.14;101555.13;4419791;32;20267;-70
2021/08/26 08:26:26;;;;;;;19.12;4.00;;;;;;;26.44;33.46;101548.19;4422673;32;20062;-70
2021/08/26 08:28:52;;;;;;;10.95;3.33;;;;;;;26.76;32.29;101558.09;4424567;32;20065;-69
2021/08/26 08:31:19;;;;;;;16.50;4.30;;;;;;;26.46;32.78;101557.12;4424731;32;20121;-70
2021/08/26 08:33:46;;;;;;;10.32;3.20;;;;;;;26.47;32.73;101547.12;4420076;32;20033;-70
2021/08/26 08:36:13;;;;;;;11.77;3.28;;;;;;;26.87;32.08;101538.59;4419728;32;20029;-71
2021/08/26 08:38:39;;;;;;;12.05;3.67;;;;;;;27.07;32.13;101543.22;4421981;32;20462;-70
2021/08/26 08:41:04;;;;;;;13.57;3.92;;;;;;;27.21;31.76;101539.94;4419079;32;20094;-71
2021/08/26 08:43:30;;;;;;;13.77;3.25;;;;;;;27.20;31.32;101546.25;4421882;32;20091;-70
2021/08/26 08:45:57;;;;;;;13.35;3.42;;;;;;;27.29;31.61;101548.87;4423663;32;21511;-70
2021/08/26 08:48:27;;;;;;;10.52;3.33;;;;;;;27.13;31.83;101546.84;4421870;32;20092;-68
2021/08/26 08:50:56;;;;;;;14.77;3.60;;;;;;;27.22;31.68;101547.28;4421156;32;20033;-68
2021/08/26 08:53:21;;;;;;;11.65;3.00;;;;;;;27.09;31.92;101550.00;4418178;32;20057;-69
2021/08/26 08:55:48;;;;;;;18.62;3.72;;;;;;;26.86;32.18;101542.00;4425831;32;20466;-68
2021/08/26 08:58:14;;;;;;;13.77;3.15;;;;;;;27.38;31.71;101551.44;4423359;32;20116;-68
2021/08/26 09:00:40;;;;;;;11.02;3.28;;;;;;;27.37;31.52;101554.84;4424569;32;20495;-68
2021/08/26 09:03:06;;;;;;;10.13;3.55;;;;;;;27.58;30.99;101547.34;4422110;32;20143;-68
2021/08/26 09:08:26;;;;;;;16.05;3.53;;;;;;;28.21;30.56;101562.28;3983411;32;15023176;-68
2021/08/26 09:10:55;;;;;;;10.32;3.58;;;;;;;28.21;30.56;101562.28;4438425;32;20072;-67
2021/08/26 09:13:30;;;;;;;9.77;3.42;;;;;;;27.98;30.71;101558.81;4438736;32;20041;-67
2021/08/26 09:15:56;;;;;;;19.80;4.28;;;;;;;28.31;29.95;101555.59;4437930;32;20379;-67
2021/08/26 09:18:23;;;;;;;11.05;3.25;;;;;;;26.85;32.12;101554.88;4439727;32;20042;-67
2021/08/26 09:23:31;;;;;;;15.32;3.00;;;;;;;28.78;29.63;101565.56;3985262;32;15023147;-68
2021/08/26 09:26:19;;;;;;;12.37;3.25;;;;;;;28.78;29.63;101565.56;4438966;32;20084;-68
2021/08/26 09:28:45;;;;;;;7.90;3.05;;;;;;;28.48;29.79;101555.44;4440177;32;20061;-68
2021/08/26 09:39:14;;;;;;;9.05;3.00;;;;;;;28.48;29.86;101559.59;3995731;31;15015766;-68
2021/08/26 09:44:24;;;;;;;7.85;2.90;;;;;;;29.00;29.61;101556.56;3981582;32;15023646;-68
2021/08/26 09:46:51;;;;;;;16.95;2.87;;;;;;;29.00;29.61;101556.56;4441425;32;20067;-68
2021/08/26 09:49:20;;;;;;;9.40;2.60;;;;;;;27.92;30.97;101549.41;4436356;32;20094;-68
2021/08/26 09:52:02;;;;;;;18.90;3.30;;;;;;;28.07;30.91;101561.38;4436131;32;20045;-68
2021/08/26 09:57:05;;;;;;;7.40;2.67;;;;;;;29.74;28.79;101561.56;3994215;31;15016852;-68
2021/08/26 09:59:49;;;;;;;7.37;2.90;;;;;;;29.74;28.79;101561.56;4457492;32;20041;-67
2021/08/26 10:02:16;;;;;;;9.38;3.10;;;;;;;29.03;29.32;101552.56;4454450;32;20504;-67
2021/08/26 10:04:42;;;;;;;7.82;2.40;;;;;;;28.95;29.75;101562.44;4458616;32;20140;-67
2021/08/26 10:07:09;;;;;;;8.82;2.87;;;;;;;27.94;31.10;101564.12;4457093;32;20424;-67
2021/08/26 10:09:38;;;;;;;14.65;3.12;;;;;;;28.06;31.00;101559.00;4456164;32;20099;-67
2021/08/26 10:12:05;;;;;;;7.18;2.37;;;;;;;28.67;30.19;101562.03;4456641;32;20110;-69
2021/08/26 10:14:33;;;;;;;9.02;2.30;;;;;;;28.68;30.17;101569.37;4456314;32;20474;-67
2021/08/26 10:16:59;;;;;;;6.47;2.65;;;;;;;28.21;30.92;101563.06;4456071;32;20060;-67
2021/08/26 10:19:25;;;;;;;9.85;2.72;;;;;;;28.75;30.07;101568.78;4456142;32;20389;-67
2021/08/26 10:21:52;;;;;;;7.30;2.70;;;;;;;29.18;29.29;101566.66;4455707;32;20071;-67
2021/08/26 10:24:20;;;;;;;9.77;2.55;;;;;;;29.27;28.98;101568.34;4455710;32;20362;-67
2021/08/26 10:26:57;;;;;;;5.80;2.33;;;;;;;29.45;28.67;101562.50;4457219;32;20041;-67
2021/08/26 10:29:24;;;;;;;7.53;2.25;;;;;;;30.06;27.71;101547.00;4455666;32;20081;-67
2021/08/26 10:31:58;;;;;;;8.27;2.45;;;;;;;29.99;27.73;101545.53;4438789;32;20577;-67
2021/08/26 10:34:27;;;;;;;5.85;2.25;;;;;;;30.26;27.40;101549.28;4454785;32;20805;-67
2021/08/26 10:39:36;;;;;;;6.87;2.30;;;;;;;30.83;27.04;101560.78;4002492;31;15015110;-68
2021/08/26 10:53:08;;;;;;;5.85;2.60;;;;;;;31.73;25.88;101566.09;3982770;32;15025097;-69
2021/08/26 11:01:02;;;;;;;5.78;2.28;;;;;;;32.03;25.33;101555.53;3983680;32;15028560;-68
2021/08/26 11:16:45;;;;;;;11.18;3.03;;;;;;;31.10;26.44;101554.94;4002263;31;15015891;-67
2021/08/26 11:29:33;;;;;;;5.82;2.70;;;;;;;30.99;26.51;101567.59;3991915;31;15022147;-68
2021/08/26 11:32:01;;;;;;;8.70;2.70;;;;;;;30.99;26.51;101567.59;4446383;32;20555;-68
2021/08/26 11:39:59;;;;;;;10.80;3.42;;;;;;;31.15;26.41;101562.72;3960418;32;15023241;-68
2021/08/26 11:47:45;;;;;;;8.00;2.62;;;;;;;31.99;25.30;101559.59;3983739;32;15027054;-67
2021/08/26 11:52:50;;;;;;;5.50;2.57;;;;;;;31.83;25.46;101570.91;3952132;32;15849289;-68
2021/08/26 11:55:18;;;;;;;9.20;2.70;;;;;;;31.83;25.46;101570.91;4430656;32;20587;-68
2021/08/26 11:57:44;;;;;;;6.05;2.60;;;;;;;31.39;25.79;101569.06;4433575;32;20064;-68
2021/08/26 12:00:12;;;;;;;9.13;3.03;;;;;;;31.64;25.42;101566.59;4435968;32;20106;-68
2021/08/26 12:02:41;;;;;;;9.82;2.80;;;;;;;31.44;25.62;101573.19;4430300;32;20102;-69
2021/08/26 12:05:12;;;;;;;10.10;2.70;;;;;;;31.27;25.88;101561.12;4434200;32;20045;-67
2021/08/26 12:07:40;;;;;;;8.55;2.33;;;;;;;31.52;25.63;101560.28;4434121;32;20088;-67
2021/08/26 12:21:04;;;;;;;6.25;2.50;;;;;;;32.19;25.01;101573.91;3982786;32;15025123;-68
2021/08/26 12:23:32;;;;;;;9.50;2.75;;;;;;;32.19;25.01;101573.91;4437630;32;20479;-68
2021/08/26 12:28:59;;;;;;;7.72;2.53;;;;;;;32.09;25.33;101572.87;3978331;32;15027843;-68
2021/08/26 12:31:27;;;;;;;7.80;2.53;;;;;;;32.09;25.33;101572.87;4431855;32;20086;-67
2021/08/26 12:34:00;;;;;;;6.50;2.70;;;;;;;31.63;25.61;101574.53;4434281;32;20076;-67
2021/08/26 12:36:30;;;;;;;10.57;3.58;;;;;;;31.02;26.41;101569.37;4432875;32;20033;-67
2021/08/26 12:38:56;;;;;;;8.48;2.50;;;;;;;31.65;25.64;101565.25;4434967;32;20422;-67
2021/08/26 12:41:23;;;;;;;11.65;2.70;;;;;;;31.44;25.63;101561.56;4432439;32;20126;-67
2021/08/26 12:46:31;;;;;;;7.57;3.40;;;;;;;33.08;23.94;101564.19;3957157;32;15726623;-68
2021/08/26 12:49:08;;;;;;;7.93;2.72;;;;;;;33.08;23.94;101564.19;4434573;32;20062;-68
2021/08/26 12:51:35;;;;;;;6.22;2.45;;;;;;;32.61;24.50;101561.59;4432663;32;20100;-68
2021/08/26 12:56:57;;;;;;;3.65;1.90;;;;;;;33.28;23.80;101566.19;3956606;32;15725180;-68